createdAt,value
2022-08-01T00:00:35.622Z,85.85
2022-08-01T00:03:05.641Z,86.15
2022-08-01T00:05:35.877Z,85.79
2022-08-01T00:08:06.087Z,85.69
2022-08-01T00:10:37.665Z,85.64
2022-08-01T00:13:07.992Z,85.36
2022-08-01T00:15:40.194Z,84.95
2022-08-01T00:18:10.151Z,85.06
2022-08-01T00:20:40.043Z,84.79
2022-08-01T00:23:09.991Z,84.77
2022-08-01T00:25:41.472Z,84.73
2022-08-01T00:28:11.306Z,84.53
2022-08-01T00:30:41.086Z,85.01
2022-08-01T00:33:11.087Z,84.83
2022-08-01T00:35:41.146Z,84.89
2022-08-01T00:38:11.052Z,85.02
2022-08-01T00:40:42.735Z,85.49
2022-08-01T00:43:13.553Z,85.57
2022-08-01T00:45:43.666Z,85.42
2022-08-01T00:48:13.582Z,85.06
2022-08-01T00:53:02.545Z,85.41
2022-08-01T00:55:33.271Z,85.46
2022-08-01T00:58:05.783Z,85.80
2022-08-01T01:00:52.743Z,86.29
2022-08-01T01:06:29.321Z,85.52
2022-08-01T01:09:21.751Z,85.38
2022-08-01T01:12:05.181Z,84.98
2022-08-01T01:14:46.027Z,84.94
2022-08-01T01:17:50.231Z,84.70
2022-08-01T01:20:16.205Z,84.85
2022-08-01T01:23:03.666Z,84.95
2022-08-01T01:25:54.454Z,84.93
2022-08-01T01:28:38.468Z,85.37
2022-08-01T01:31:12.825Z,85.18
2022-08-01T01:33:47.167Z,85.25
2022-08-01T01:36:20.618Z,85.27
2022-08-01T01:38:52.283Z,85.27
2022-08-01T01:41:23.547Z,85.38
2022-08-01T01:43:55.663Z,85.40
2022-08-01T01:46:29.882Z,84.99
2022-08-01T01:49:01.639Z,85.30
2022-08-01T01:51:33.505Z,84.98
2022-08-01T01:54:04.847Z,85.33
2022-08-01T01:56:36.155Z,85.26
2022-08-01T01:59:07.727Z,85.22
2022-08-01T02:02:06.061Z,84.63
2022-08-01T02:04:30.682Z,84.80
2022-08-01T02:07:02.947Z,85.00
2022-08-01T02:09:34.512Z,84.89
2022-08-01T02:12:08.753Z,85.06
2022-08-01T02:14:41.244Z,85.44
2022-08-01T02:17:15.244Z,85.62
2022-08-01T02:19:45.986Z,85.19
2022-08-01T02:22:23.087Z,84.92
2022-08-01T02:24:57.317Z,84.57
2022-08-01T02:27:33.305Z,84.30
2022-08-01T02:30:07.506Z,84.37
2022-08-01T02:32:46.257Z,84.97
2022-08-01T02:35:24.859Z,84.79
2022-08-01T02:37:58.183Z,84.74
2022-08-01T02:40:32.866Z,84.73
2022-08-01T02:43:06.315Z,84.92
2022-08-01T02:45:40.369Z,85.12
2022-08-01T02:48:17.086Z,85.15
2022-08-01T02:50:51.531Z,85.10
2022-08-01T02:53:41.621Z,85.49
2022-08-01T02:56:15.723Z,85.51
2022-08-01T02:58:46.425Z,85.42
2022-08-01T03:01:19.900Z,84.72
2022-08-01T03:03:51.956Z,84.89
2022-08-01T03:06:22.465Z,84.85
2022-08-01T03:08:52.966Z,84.91
2022-08-01T03:11:24.109Z,84.86
2022-08-01T03:14:00.331Z,85.47
2022-08-01T03:16:32.827Z,85.98
2022-08-01T03:19:05.665Z,86.25
2022-08-01T03:21:36.586Z,86.76
2022-08-01T03:24:09.848Z,86.58
2022-08-01T03:26:43.757Z,86.55
2022-08-01T03:29:19.187Z,86.06
2022-08-01T03:31:52.069Z,85.88
2022-08-01T03:34:24.031Z,85.47
2022-08-01T03:37:06.529Z,85.43
2022-08-01T03:39:47.864Z,84.92
2022-08-01T03:42:23.514Z,85.03
2022-08-01T03:45:00.566Z,84.74
2022-08-01T03:47:43.749Z,85.00
2022-08-01T03:50:18.218Z,84.35
2022-08-01T03:54:03.648Z,84.64
2022-08-01T03:56:34.708Z,84.91
2022-08-01T03:59:05.847Z,84.71
2022-08-01T04:01:37.271Z,84.16
2022-08-01T04:04:32.837Z,84.55
2022-08-01T04:07:07.707Z,84.64
2022-08-01T04:09:37.725Z,84.57
2022-08-01T04:12:08.814Z,84.08
2022-08-01T04:14:42.647Z,84.51
2022-08-01T04:17:12.690Z,85.12
2022-08-01T04:19:44.445Z,84.89
2022-08-01T04:22:17.237Z,85.00
2022-08-01T04:24:56.406Z,85.20
2022-08-01T04:27:49.953Z,84.87
2022-08-01T04:30:26.067Z,84.50
2022-08-01T04:32:58.268Z,83.56
2022-08-01T04:36:02.186Z,83.63
2022-08-01T04:38:28.649Z,83.20
2022-08-01T04:41:09.191Z,82.77
2022-08-01T04:43:40.371Z,81.57
2022-08-01T04:48:22.694Z,81.61
2022-08-01T04:50:53.341Z,80.92
2022-08-01T04:53:24.545Z,80.26
2022-08-01T04:55:54.843Z,79.91
2022-08-01T04:58:24.717Z,79.28
2022-08-01T05:00:54.725Z,78.80
2022-08-01T05:03:26.145Z,78.23
2022-08-01T05:05:56.048Z,77.40
2022-08-01T05:08:25.943Z,76.89
2022-08-01T05:10:55.957Z,74.68
2022-08-01T05:13:25.887Z,72.01
2022-08-01T05:15:55.889Z,70.14
2022-08-01T05:18:28.691Z,66.01
2022-08-01T05:20:58.913Z,67.04
2022-08-01T05:23:41.832Z,64.92
2022-08-01T05:26:15.185Z,64.25
2022-08-01T05:28:45.927Z,62.49
2022-08-01T05:31:15.985Z,59.97
2022-08-01T05:33:47.531Z,59.86
2022-08-01T05:36:17.489Z,58.72
2022-08-01T05:38:47.512Z,59.03
2022-08-01T05:41:17.484Z,58.36
2022-08-01T05:43:47.493Z,58.96
2022-08-01T05:46:17.403Z,56.71
2022-08-01T05:48:48.849Z,56.78
2022-08-01T05:51:18.754Z,56.81
2022-08-01T05:53:48.788Z,53.94
2022-08-01T05:56:18.680Z,53.49
2022-08-01T05:58:48.605Z,53.27
2022-08-01T06:01:18.505Z,53.50
2022-08-01T06:03:49.930Z,51.66
2022-08-01T13:43:15.304Z,35.15
2022-08-01T13:45:45.387Z,36.18
2022-08-01T13:48:18.699Z,34.94
2022-08-01T13:51:02.134Z,34.63
2022-08-01T13:53:38.963Z,35.48
2022-08-01T13:56:09.570Z,35.38
2022-08-01T13:58:40.848Z,35.84
2022-08-01T14:01:10.862Z,35.06
2022-08-01T14:03:41.512Z,35.21
2022-08-01T14:06:11.480Z,35.29
2022-08-01T14:08:41.482Z,35.76
2022-08-01T14:11:16.180Z,34.58
2022-08-01T14:13:50.141Z,36.58
2022-08-01T14:16:20.915Z,36.85
2022-08-01T14:18:50.723Z,35.85
2022-08-01T14:21:20.863Z,36.56
2022-08-01T14:23:50.740Z,36.37
2022-08-01T14:26:20.623Z,37.18
2022-08-01T14:28:52.099Z,35.46
2022-08-01T14:31:22.023Z,37.85
2022-08-01T14:33:51.953Z,37.29
2022-08-01T14:36:30.329Z,38.42
2022-08-01T14:39:01.936Z,38.52
2022-08-01T14:41:32.363Z,38.26
2022-08-01T14:44:03.719Z,37.98
2022-08-01T14:46:34.042Z,38.48
2022-08-01T14:49:04.209Z,38.07
2022-08-01T14:51:36.473Z,38.40
2022-08-01T14:54:06.740Z,38.48
2022-08-01T14:56:38.382Z,39.66
2022-08-01T14:59:21.715Z,39.56
2022-08-01T15:01:52.155Z,40.23
2022-08-01T15:04:21.984Z,39.34
2022-08-01T15:06:51.848Z,39.85
2022-08-01T15:09:31.840Z,40.03
2022-08-01T15:12:01.680Z,39.22
2022-08-01T15:14:51.240Z,39.41
2022-08-01T15:17:22.770Z,39.88
2022-08-01T15:20:03.121Z,40.08
2022-08-01T15:22:33.322Z,40.06
2022-08-01T15:25:05.344Z,39.04
2022-08-01T15:27:35.283Z,40.28
2022-08-01T15:30:08.232Z,40.30
2022-08-01T15:32:38.122Z,40.94
2022-08-01T15:35:11.513Z,41.40
2022-08-01T15:37:43.218Z,39.71
2022-08-01T15:40:14.328Z,40.59
2022-08-01T15:42:44.201Z,40.76
2022-08-01T15:45:46.356Z,40.66
2022-08-01T15:48:09.842Z,40.57
2022-08-01T15:53:59.179Z,40.86
2022-08-01T15:56:29.067Z,40.63
2022-08-01T15:58:58.963Z,40.86
2022-08-01T16:01:29.250Z,40.86
2022-08-01T16:04:00.260Z,41.11
2022-08-01T16:06:30.841Z,41.49
2022-08-01T16:09:02.239Z,41.41
2022-08-01T16:11:32.243Z,41.33
2022-08-01T16:14:02.602Z,41.59
2022-08-01T16:16:32.402Z,41.43
2022-08-01T16:19:02.121Z,41.78
2022-08-01T16:21:32.103Z,42.08
2022-08-01T16:24:03.603Z,41.80
2022-08-01T16:26:33.564Z,42.62
2022-08-01T16:29:03.508Z,42.59
2022-08-01T16:31:50.037Z,43.25
2022-08-01T16:34:23.907Z,43.23
2022-08-01T16:36:55.699Z,43.70
2022-08-01T16:39:27.240Z,43.96
2022-08-01T16:41:57.161Z,44.11
2022-08-01T16:44:33.783Z,43.52
2022-08-01T16:47:05.900Z,44.34
2022-08-01T16:49:36.142Z,43.88
2022-08-01T16:52:07.689Z,44.13
2022-08-01T16:54:39.311Z,44.58
2022-08-01T16:57:09.375Z,44.36
2022-08-01T17:02:12.974Z,45.11
2022-08-01T17:04:42.845Z,45.02
2022-08-01T17:07:12.917Z,45.02
2022-08-01T17:09:44.270Z,45.51
2022-08-01T17:12:22.026Z,45.97
2022-08-01T17:14:52.940Z,46.12
2022-08-01T17:17:22.916Z,46.52
2022-08-01T17:19:53.755Z,46.88
2022-08-01T17:22:23.698Z,47.40
2022-08-01T17:24:55.263Z,47.80
2022-08-01T17:27:25.103Z,48.01
2022-08-01T17:29:55.459Z,48.62
2022-08-01T17:32:25.223Z,49.34
2022-08-01T17:34:58.242Z,49.85
2022-08-01T17:37:28.024Z,51.04
2022-08-01T17:39:59.449Z,51.68
2022-08-01T17:42:30.602Z,52.54
2022-08-01T17:45:00.704Z,52.53
2022-08-01T17:47:49.796Z,53.17
2022-08-01T17:50:20.513Z,54.25
2022-08-01T17:52:50.487Z,54.18
2022-08-01T17:55:56.206Z,55.23
2022-08-01T17:58:14.716Z,55.19
2022-08-01T18:00:45.089Z,56.23
2022-08-01T18:03:22.811Z,56.56
2022-08-01T18:06:02.148Z,56.50
2022-08-01T18:08:32.566Z,56.82
2022-08-01T18:11:04.782Z,57.13
2022-08-01T18:13:35.210Z,57.29
2022-08-01T18:16:07.520Z,57.25
2022-08-01T18:18:38.933Z,57.79
2022-08-01T18:21:16.166Z,57.82
2022-08-01T18:23:51.944Z,58.06
2022-08-01T18:26:24.240Z,58.78
2022-08-01T18:28:54.135Z,59.32
2022-08-01T18:31:24.883Z,59.20
2022-08-01T18:33:54.734Z,60.11
2022-08-01T18:36:33.089Z,60.00
2022-08-01T18:39:06.390Z,60.06
2022-08-01T18:41:42.582Z,60.95
2022-08-01T18:44:12.854Z,61.06
2022-08-01T18:46:43.579Z,61.41
2022-08-01T18:49:15.207Z,61.19
2022-08-01T18:53:59.304Z,61.66
2022-08-01T18:56:29.186Z,62.12
2022-08-01T18:58:59.084Z,62.57
2022-08-01T19:01:28.939Z,62.79
2022-08-01T19:03:58.761Z,62.67
2022-08-01T19:06:28.705Z,62.97
2022-08-01T19:09:02.565Z,64.08
2022-08-01T19:11:33.234Z,63.18
2022-08-01T19:14:03.806Z,63.91
2022-08-01T19:16:34.278Z,63.79
2022-08-01T19:19:07.527Z,64.35
2022-08-01T19:21:41.522Z,64.59
2022-08-01T19:24:23.417Z,64.43
2022-08-01T19:26:55.771Z,65.24
2022-08-01T19:29:35.832Z,65.76
2022-08-01T19:32:10.483Z,65.23
2022-08-01T19:35:05.904Z,65.77
2022-08-01T19:37:36.728Z,65.93
2022-08-01T19:40:10.263Z,66.62
2022-08-01T19:42:43.418Z,66.08
2022-08-01T19:45:13.877Z,66.08
2022-08-01T19:47:52.014Z,66.84
2022-08-01T19:50:27.665Z,66.79
2022-08-01T19:52:59.109Z,66.97
2022-08-01T19:55:32.189Z,67.12
2022-08-01T19:58:25.789Z,66.77
2022-08-01T20:00:54.815Z,66.34
2022-08-01T20:03:25.810Z,66.60
2022-08-01T20:05:55.735Z,67.21
2022-08-01T20:08:27.156Z,67.24
2022-08-01T20:11:10.362Z,67.50
2022-08-01T20:13:42.126Z,67.70
2022-08-01T20:16:11.917Z,67.35
2022-08-01T20:18:43.053Z,67.35
2022-08-01T20:21:18.526Z,67.45
2022-08-01T20:23:49.061Z,68.10
2022-08-01T20:26:22.705Z,68.15
2022-08-01T20:28:52.686Z,68.41
2022-08-01T20:31:25.483Z,68.50
2022-08-01T20:33:59.579Z,69.08
2022-08-01T20:36:31.093Z,69.19
2022-08-01T20:39:04.432Z,69.58
2022-08-01T20:41:38.284Z,70.02
2022-08-01T20:44:08.844Z,70.84
2022-08-01T20:46:40.856Z,70.28
2022-08-01T20:49:15.076Z,70.79
2022-08-01T20:51:46.415Z,70.26
2022-08-01T20:54:16.242Z,69.94
2022-08-01T20:56:59.195Z,70.11
2022-08-01T20:59:54.678Z,70.37
2022-08-01T21:02:42.961Z,70.82
2022-08-01T21:05:14.621Z,71.01
2022-08-01T21:07:53.221Z,71.22
2022-08-01T21:10:27.290Z,71.14
2022-08-01T21:13:21.594Z,71.29
2022-08-01T21:16:07.519Z,71.77
2022-08-01T21:19:19.022Z,72.18
2022-08-01T21:21:53.661Z,72.03
2022-08-01T21:24:31.208Z,72.39
2022-08-01T21:27:01.884Z,71.88
2022-08-01T21:29:35.931Z,72.71
2022-08-01T21:32:16.280Z,72.43
2022-08-01T21:34:49.109Z,72.96
2022-08-01T21:37:20.086Z,73.36
2022-08-01T21:39:59.149Z,73.24
2022-08-01T21:42:31.032Z,73.07
2022-08-01T21:45:05.949Z,73.57
2022-08-01T21:47:35.786Z,74.05
2022-08-01T21:50:09.801Z,73.36
2022-08-01T21:54:10.383Z,74.00
2022-08-01T21:56:51.141Z,74.50
2022-08-01T21:59:30.841Z,75.44
2022-08-01T22:02:05.794Z,75.32
2022-08-01T22:04:44.769Z,74.96
2022-08-01T22:07:18.677Z,74.44
2022-08-01T22:09:52.646Z,74.46
2022-08-01T22:12:23.385Z,74.60
2022-08-01T22:14:58.608Z,74.97
2022-08-01T22:17:28.466Z,74.47
2022-08-01T22:19:58.647Z,74.46
2022-08-01T22:22:44.481Z,75.24
2022-08-01T22:25:25.169Z,75.38
2022-08-01T22:28:06.535Z,74.82
2022-08-01T22:30:44.282Z,75.67
2022-08-01T22:33:22.605Z,75.98
2022-08-01T22:35:54.693Z,75.20
2022-08-01T22:38:26.158Z,75.21
2022-08-01T22:41:05.484Z,74.91
2022-08-01T22:43:47.470Z,75.03
2022-08-01T22:46:26.993Z,75.41
2022-08-01T22:49:09.290Z,75.38
2022-08-01T22:51:55.269Z,75.04
2022-08-01T22:54:32.069Z,75.59
2022-08-01T22:57:08.360Z,75.99
2022-08-01T22:59:48.684Z,75.82
2022-08-01T23:02:19.990Z,76.06
2022-08-01T23:04:51.621Z,75.81
2022-08-01T23:07:26.042Z,76.01
2022-08-01T23:09:57.361Z,75.82
2022-08-01T23:12:29.899Z,76.11
2022-08-01T23:15:01.950Z,76.13
2022-08-01T23:17:34.073Z,76.22
2022-08-01T23:20:08.502Z,75.97
2022-08-01T23:22:40.193Z,76.58
2022-08-01T23:25:12.613Z,76.55
2022-08-01T23:28:04.030Z,76.13
2022-08-01T23:30:37.775Z,75.85
2022-08-01T23:33:07.885Z,75.72
2022-08-01T23:35:39.153Z,75.78
2022-08-01T23:38:11.221Z,76.07
2022-08-01T23:40:41.520Z,76.58
2022-08-01T23:43:17.843Z,76.50
2022-08-01T23:46:03.622Z,76.58
2022-08-01T23:48:36.621Z,76.22
2022-08-01T23:51:09.215Z,76.56
2022-08-01T23:53:39.414Z,77.38
2022-08-01T23:56:09.535Z,77.82
